sensor_id;sensor_type;location;lat;lon;timestamp;P1;durP1;ratioP1;P2;durP2;ratioP2
36789;SDS011;22740;52.182;8.780;2022-07-23T00:05:35;9.90;;;5.15;;
36789;SDS011;22740;52.182;8.780;2022-07-23T00:11:38;7.25;;;5.45;;
36789;SDS011;22740;52.182;8.780;2022-07-23T00:17:40;11.23;;;6.05;;
36789;SDS011;22740;52.182;8.780;2022-07-23T00:23:42;11.73;;;6.65;;
36789;SDS011;22740;52.182;8.780;2022-07-23T00:29:44;10.45;;;5.50;;
36789;SDS011;22740;52.182;8.780;2022-07-23T00:35:46;9.65;;;6.07;;
36789;SDS011;22740;52.182;8.780;2022-07-23T00:41:48;7.78;;;5.97;;
36789;SDS011;22740;52.182;8.780;2022-07-23T00:47:50;10.88;;;5.88;;
36789;SDS011;22740;52.182;8.780;2022-07-23T00:53:52;9.20;;;5.47;;
36789;SDS011;22740;52.182;8.780;2022-07-23T00:59:54;10.20;;;5.82;;
36789;SDS011;22740;52.182;8.780;2022-07-23T01:05:57;8.18;;;6.00;;
36789;SDS011;22740;52.182;8.780;2022-07-23T01:11:59;12.77;;;7.00;;
36789;SDS011;22740;52.182;8.780;2022-07-23T01:18:02;9.23;;;6.15;;
36789;SDS011;22740;52.182;8.780;2022-07-23T01:24:05;11.43;;;6.17;;
36789;SDS011;22740;52.182;8.780;2022-07-23T01:30:08;11.65;;;6.75;;
36789;SDS011;22740;52.182;8.780;2022-07-23T01:36:10;10.40;;;5.60;;
36789;SDS011;22740;52.182;8.780;2022-07-23T01:42:12;10.30;;;5.90;;
36789;SDS011;22740;52.182;8.780;2022-07-23T01:48:14;8.90;;;5.60;;
36789;SDS011;22740;52.182;8.780;2022-07-23T01:54:16;10.80;;;5.75;;
36789;SDS011;22740;52.182;8.780;2022-07-23T02:00:18;13.30;;;5.70;;
36789;SDS011;22740;52.182;8.780;2022-07-23T02:06:20;10.80;;;6.15;;
36789;SDS011;22740;52.182;8.780;2022-07-23T02:12:22;9.23;;;5.57;;
36789;SDS011;22740;52.182;8.780;2022-07-23T02:18:23;16.23;;;6.28;;
36789;SDS011;22740;52.182;8.780;2022-07-23T02:24:25;11.98;;;5.50;;
36789;SDS011;22740;52.182;8.780;2022-07-23T02:30:27;9.63;;;5.50;;
36789;SDS011;22740;52.182;8.780;2022-07-23T02:36:29;10.63;;;5.28;;
36789;SDS011;22740;52.182;8.780;2022-07-23T02:42:31;14.93;;;5.90;;
36789;SDS011;22740;52.182;8.780;2022-07-23T02:48:33;8.38;;;5.10;;
36789;SDS011;22740;52.182;8.780;2022-07-23T02:54:35;9.65;;;5.00;;
36789;SDS011;22740;52.182;8.780;2022-07-23T03:00:38;11.98;;;5.80;;
36789;SDS011;22740;52.182;8.780;2022-07-23T03:06:40;14.93;;;5.93;;
36789;SDS011;22740;52.182;8.780;2022-07-23T03:12:41;10.43;;;6.15;;
36789;SDS011;22740;52.182;8.780;2022-07-23T03:18:43;13.07;;;6.22;;
36789;SDS011;22740;52.182;8.780;2022-07-23T03:24:46;17.48;;;6.15;;
36789;SDS011;22740;52.182;8.780;2022-07-23T03:30:57;11.27;;;5.97;;
36789;SDS011;22740;52.182;8.780;2022-07-23T03:36:59;13.00;;;5.63;;
36789;SDS011;22740;52.182;8.780;2022-07-23T03:43:03;13.13;;;5.65;;
36789;SDS011;22740;52.182;8.780;2022-07-23T03:49:04;11.35;;;6.13;;
36789;SDS011;22740;52.182;8.780;2022-07-23T03:55:07;11.80;;;5.88;;
36789;SDS011;22740;52.182;8.780;2022-07-23T04:01:10;12.18;;;6.55;;
36789;SDS011;22740;52.182;8.780;2022-07-23T04:07:13;10.85;;;5.65;;
36789;SDS011;22740;52.182;8.780;2022-07-23T04:13:15;16.00;;;5.75;;
36789;SDS011;22740;52.182;8.780;2022-07-23T04:19:16;10.85;;;5.85;;
36789;SDS011;22740;52.182;8.780;2022-07-23T04:25:19;16.58;;;6.97;;
36789;SDS011;22740;52.182;8.780;2022-07-23T04:31:20;14.60;;;6.60;;
36789;SDS011;22740;52.182;8.780;2022-07-23T04:37:22;12.90;;;6.80;;
36789;SDS011;22740;52.182;8.780;2022-07-23T04:43:24;12.30;;;6.97;;
36789;SDS011;22740;52.182;8.780;2022-07-23T04:49:26;15.75;;;6.68;;
36789;SDS011;22740;52.182;8.780;2022-07-23T04:55:28;10.77;;;7.00;;
36789;SDS011;22740;52.182;8.780;2022-07-23T05:01:30;14.75;;;6.85;;
36789;SDS011;22740;52.182;8.780;2022-07-23T05:07:32;15.90;;;7.28;;
36789;SDS011;22740;52.182;8.780;2022-07-23T05:13:33;12.70;;;7.53;;
36789;SDS011;22740;52.182;8.780;2022-07-23T05:19:35;12.75;;;7.88;;
36789;SDS011;22740;52.182;8.780;2022-07-23T05:25:37;13.43;;;8.18;;
36789;SDS011;22740;52.182;8.780;2022-07-23T05:31:39;17.88;;;8.60;;
36789;SDS011;22740;52.182;8.780;2022-07-23T05:37:41;17.10;;;8.02;;
36789;SDS011;22740;52.182;8.780;2022-07-23T05:43:43;16.98;;;7.88;;
36789;SDS011;22740;52.182;8.780;2022-07-23T05:49:46;13.47;;;8.90;;
36789;SDS011;22740;52.182;8.780;2022-07-23T05:55:48;14.95;;;8.70;;
36789;SDS011;22740;52.182;8.780;2022-07-23T06:01:50;13.27;;;8.32;;
36789;SDS011;22740;52.182;8.780;2022-07-23T06:07:51;12.60;;;7.72;;
36789;SDS011;22740;52.182;8.780;2022-07-23T06:13:54;10.80;;;7.78;;
36789;SDS011;22740;52.182;8.780;2022-07-23T06:19:56;12.85;;;7.43;;
36789;SDS011;22740;52.182;8.780;2022-07-23T06:25:58;11.30;;;7.70;;
36789;SDS011;22740;52.182;8.780;2022-07-23T06:32:01;15.65;;;8.98;;
36789;SDS011;22740;52.182;8.780;2022-07-23T06:38:02;8.07;;;6.47;;
36789;SDS011;22740;52.182;8.780;2022-07-23T06:44:05;12.43;;;7.20;;
36789;SDS011;22740;52.182;8.780;2022-07-23T06:50:06;11.02;;;6.22;;
36789;SDS011;22740;52.182;8.780;2022-07-23T06:56:08;12.00;;;6.25;;
36789;SDS011;22740;52.182;8.780;2022-07-23T07:02:11;9.80;;;5.88;;
36789;SDS011;22740;52.182;8.780;2022-07-23T07:08:13;11.77;;;5.72;;
36789;SDS011;22740;52.182;8.780;2022-07-23T07:14:15;9.52;;;5.53;;
36789;SDS011;22740;52.182;8.780;2022-07-23T07:20:18;7.05;;;4.60;;
36789;SDS011;22740;52.182;8.780;2022-07-23T07:26:20;8.45;;;4.60;;
36789;SDS011;22740;52.182;8.780;2022-07-23T07:32:21;9.02;;;4.38;;
36789;SDS011;22740;52.182;8.780;2022-07-23T07:38:43;6.47;;;3.80;;
36789;SDS011;22740;52.182;8.780;2022-07-23T07:44:45;5.75;;;3.50;;
36789;SDS011;22740;52.182;8.780;2022-07-23T07:50:49;4.53;;;2.90;;
36789;SDS011;22740;52.182;8.780;2022-07-23T08:02:53;6.38;;;3.70;;
36789;SDS011;22740;52.182;8.780;2022-07-23T08:08:57;7.28;;;3.88;;
36789;SDS011;22740;52.182;8.780;2022-07-23T08:21:03;7.28;;;3.80;;
36789;SDS011;22740;52.182;8.780;2022-07-23T08:27:07;5.45;;;2.95;;
36789;SDS011;22740;52.182;8.780;2022-07-23T08:33:13;6.03;;;3.30;;
36789;SDS011;22740;52.182;8.780;2022-07-23T08:39:34;6.45;;;3.13;;
36789;SDS011;22740;52.182;8.780;2022-07-23T08:45:37;7.55;;;3.30;;
36789;SDS011;22740;52.182;8.780;2022-07-23T08:51:41;4.90;;;2.85;;
36789;SDS011;22740;52.182;8.780;2022-07-23T08:57:43;6.05;;;3.13;;
36789;SDS011;22740;52.182;8.780;2022-07-23T09:03:45;7.10;;;3.08;;
36789;SDS011;22740;52.182;8.780;2022-07-23T09:09:48;8.55;;;2.70;;
36789;SDS011;22740;52.182;8.780;2022-07-23T09:16:12;5.28;;;2.50;;
36789;SDS011;22740;52.182;8.780;2022-07-23T09:28:28;4.55;;;2.45;;
36789;SDS011;22740;52.182;8.780;2022-07-23T09:34:31;5.18;;;2.10;;
36789;SDS011;22740;52.182;8.780;2022-07-23T09:40:39;5.18;;;2.28;;
36789;SDS011;22740;52.182;8.780;2022-07-23T09:46:42;6.45;;;2.53;;
36789;SDS011;22740;52.182;8.780;2022-07-23T09:58:49;5.10;;;2.00;;
36789;SDS011;22740;52.182;8.780;2022-07-23T10:05:04;3.83;;;1.67;;
36789;SDS011;22740;52.182;8.780;2022-07-23T10:11:07;5.32;;;2.00;;
36789;SDS011;22740;52.182;8.780;2022-07-23T10:17:12;6.22;;;1.40;;
36789;SDS011;22740;52.182;8.780;2022-07-23T10:23:18;2.97;;;1.63;;
36789;SDS011;22740;52.182;8.780;2022-07-23T10:42:52;5.82;;;1.67;;
36789;SDS011;22740;52.182;8.780;2022-07-23T11:01:36;2.80;;;1.50;;
36789;SDS011;22740;52.182;8.780;2022-07-23T11:14:05;3.53;;;1.40;;
36789;SDS011;22740;52.182;8.780;2022-07-23T11:26:30;4.32;;;1.33;;
36789;SDS011;22740;52.182;8.780;2022-07-23T11:32:43;2.63;;;1.10;;
36789;SDS011;22740;52.182;8.780;2022-07-23T11:38:45;5.40;;;1.38;;
36789;SDS011;22740;52.182;8.780;2022-07-23T11:44:53;2.22;;;1.40;;
36789;SDS011;22740;52.182;8.780;2022-07-23T11:50:55;2.88;;;1.10;;
36789;SDS011;22740;52.182;8.780;2022-07-23T11:56:58;4.13;;;1.27;;
36789;SDS011;22740;52.182;8.780;2022-07-23T12:03:02;4.05;;;1.48;;
36789;SDS011;22740;52.182;8.780;2022-07-23T12:09:04;2.50;;;1.10;;
36789;SDS011;22740;52.182;8.780;2022-07-23T12:15:08;3.28;;;1.40;;
36789;SDS011;22740;52.182;8.780;2022-07-23T12:21:10;3.10;;;1.20;;
36789;SDS011;22740;52.182;8.780;2022-07-23T12:27:12;1.85;;;1.17;;
36789;SDS011;22740;52.182;8.780;2022-07-23T12:33:21;7.57;;;1.40;;
36789;SDS011;22740;52.182;8.780;2022-07-23T12:39:30;2.58;;;1.15;;
36789;SDS011;22740;52.182;8.780;2022-07-23T12:45:49;2.90;;;1.20;;
36789;SDS011;22740;52.182;8.780;2022-07-23T12:51:52;4.18;;;1.20;;
36789;SDS011;22740;52.182;8.780;2022-07-23T13:04:43;2.42;;;1.13;;
36789;SDS011;22740;52.182;8.780;2022-07-23T13:10:45;3.47;;;1.35;;
36789;SDS011;22740;52.182;8.780;2022-07-23T13:16:52;3.33;;;1.10;;
36789;SDS011;22740;52.182;8.780;2022-07-23T13:22:57;3.38;;;1.30;;
36789;SDS011;22740;52.182;8.780;2022-07-23T13:28:59;3.63;;;0.95;;
36789;SDS011;22740;52.182;8.780;2022-07-23T13:35:03;3.80;;;1.02;;
36789;SDS011;22740;52.182;8.780;2022-07-23T13:41:05;3.40;;;1.00;;
36789;SDS011;22740;52.182;8.780;2022-07-23T13:47:12;5.70;;;1.00;;
36789;SDS011;22740;52.182;8.780;2022-07-23T13:53:15;6.18;;;0.93;;
36789;SDS011;22740;52.182;8.780;2022-07-23T13:59:19;2.58;;;0.90;;
36789;SDS011;22740;52.182;8.780;2022-07-23T14:05:21;2.77;;;0.90;;
36789;SDS011;22740;52.182;8.780;2022-07-23T14:11:24;1.10;;;0.80;;
36789;SDS011;22740;52.182;8.780;2022-07-23T14:17:29;3.92;;;0.90;;
36789;SDS011;22740;52.182;8.780;2022-07-23T14:23:33;1.45;;;0.80;;
36789;SDS011;22740;52.182;8.780;2022-07-23T14:29:35;2.30;;;0.85;;
36789;SDS011;22740;52.182;8.780;2022-07-23T14:35:38;1.73;;;0.80;;
36789;SDS011;22740;52.182;8.780;2022-07-23T14:41:40;1.27;;;0.88;;
36789;SDS011;22740;52.182;8.780;2022-07-23T14:47:42;2.45;;;0.80;;
36789;SDS011;22740;52.182;8.780;2022-07-23T14:53:47;3.35;;;0.80;;
36789;SDS011;22740;52.182;8.780;2022-07-23T14:59:49;2.85;;;0.82;;
36789;SDS011;22740;52.182;8.780;2022-07-23T15:05:52;3.38;;;1.00;;
36789;SDS011;22740;52.182;8.780;2022-07-23T15:11:54;2.38;;;0.90;;
36789;SDS011;22740;52.182;8.780;2022-07-23T15:17:57;1.20;;;0.70;;
36789;SDS011;22740;52.182;8.780;2022-07-23T15:23:59;1.85;;;0.90;;
36789;SDS011;22740;52.182;8.780;2022-07-23T15:30:02;2.42;;;0.95;;
36789;SDS011;22740;52.182;8.780;2022-07-23T15:36:05;1.67;;;0.73;;
36789;SDS011;22740;52.182;8.780;2022-07-23T15:42:07;6.50;;;1.00;;
36789;SDS011;22740;52.182;8.780;2022-07-23T15:48:15;1.63;;;0.80;;
36789;SDS011;22740;52.182;8.780;2022-07-23T15:54:17;2.60;;;1.00;;
36789;SDS011;22740;52.182;8.780;2022-07-23T16:00:19;1.75;;;0.85;;
36789;SDS011;22740;52.182;8.780;2022-07-23T16:06:21;1.45;;;0.80;;
36789;SDS011;22740;52.182;8.780;2022-07-23T16:12:23;4.28;;;1.13;;
36789;SDS011;22740;52.182;8.780;2022-07-23T16:18:25;2.22;;;0.80;;
36789;SDS011;22740;52.182;8.780;2022-07-23T16:24:28;2.25;;;0.80;;
36789;SDS011;22740;52.182;8.780;2022-07-23T16:30:29;4.93;;;1.02;;
36789;SDS011;22740;52.182;8.780;2022-07-23T16:36:32;1.73;;;0.97;;
36789;SDS011;22740;52.182;8.780;2022-07-23T16:42:37;2.10;;;0.82;;
36789;SDS011;22740;52.182;8.780;2022-07-23T16:48:39;2.65;;;1.15;;
36789;SDS011;22740;52.182;8.780;2022-07-23T16:54:41;2.25;;;0.98;;
36789;SDS011;22740;52.182;8.780;2022-07-23T17:00:43;1.70;;;0.87;;
36789;SDS011;22740;52.182;8.780;2022-07-23T17:06:45;2.83;;;1.00;;
36789;SDS011;22740;52.182;8.780;2022-07-23T17:12:48;2.30;;;0.80;;
36789;SDS011;22740;52.182;8.780;2022-07-23T17:18:52;2.03;;;0.70;;
36789;SDS011;22740;52.182;8.780;2022-07-23T17:24:53;1.80;;;0.70;;
36789;SDS011;22740;52.182;8.780;2022-07-23T17:30:55;1.27;;;0.63;;
36789;SDS011;22740;52.182;8.780;2022-07-23T17:36:57;2.42;;;0.90;;
36789;SDS011;22740;52.182;8.780;2022-07-23T17:42:59;3.17;;;1.20;;
36789;SDS011;22740;52.182;8.780;2022-07-23T17:49:01;1.77;;;0.70;;
36789;SDS011;22740;52.182;8.780;2022-07-23T17:55:04;1.60;;;0.90;;
36789;SDS011;22740;52.182;8.780;2022-07-23T18:01:06;1.30;;;0.70;;
36789;SDS011;22740;52.182;8.780;2022-07-23T18:07:08;2.28;;;0.70;;
36789;SDS011;22740;52.182;8.780;2022-07-23T18:13:10;2.10;;;0.70;;
36789;SDS011;22740;52.182;8.780;2022-07-23T18:19:12;2.00;;;0.90;;
36789;SDS011;22740;52.182;8.780;2022-07-23T18:25:14;3.13;;;0.90;;
36789;SDS011;22740;52.182;8.780;2022-07-23T18:31:16;2.45;;;0.90;;
36789;SDS011;22740;52.182;8.780;2022-07-23T18:37:18;4.50;;;1.15;;
36789;SDS011;22740;52.182;8.780;2022-07-23T18:43:34;1.75;;;0.80;;
36789;SDS011;22740;52.182;8.780;2022-07-23T18:49:37;1.42;;;0.95;;
36789;SDS011;22740;52.182;8.780;2022-07-23T18:55:39;5.10;;;0.82;;
36789;SDS011;22740;52.182;8.780;2022-07-23T19:01:44;2.15;;;1.10;;
36789;SDS011;22740;52.182;8.780;2022-07-23T19:07:47;1.35;;;0.80;;
36789;SDS011;22740;52.182;8.780;2022-07-23T19:13:49;4.82;;;1.00;;
36789;SDS011;22740;52.182;8.780;2022-07-23T19:19:51;1.55;;;0.70;;
36789;SDS011;22740;52.182;8.780;2022-07-23T19:25:53;4.25;;;0.85;;
36789;SDS011;22740;52.182;8.780;2022-07-23T19:31:54;1.38;;;0.80;;
36789;SDS011;22740;52.182;8.780;2022-07-23T19:37:56;1.52;;;0.77;;
36789;SDS011;22740;52.182;8.780;2022-07-23T19:43:58;1.80;;;0.93;;
36789;SDS011;22740;52.182;8.780;2022-07-23T19:50:00;3.17;;;1.52;;
36789;SDS011;22740;52.182;8.780;2022-07-23T19:56:04;3.97;;;0.80;;
36789;SDS011;22740;52.182;8.780;2022-07-23T20:02:06;1.50;;;1.00;;
36789;SDS011;22740;52.182;8.780;2022-07-23T20:08:08;3.47;;;1.05;;
36789;SDS011;22740;52.182;8.780;2022-07-23T20:14:17;3.15;;;0.93;;
36789;SDS011;22740;52.182;8.780;2022-07-23T20:20:19;1.73;;;1.00;;
36789;SDS011;22740;52.182;8.780;2022-07-23T20:26:21;3.05;;;0.85;;
36789;SDS011;22740;52.182;8.780;2022-07-23T20:32:23;2.35;;;1.15;;
36789;SDS011;22740;52.182;8.780;2022-07-23T20:38:25;5.15;;;1.10;;
36789;SDS011;22740;52.182;8.780;2022-07-23T20:44:27;2.22;;;1.00;;
36789;SDS011;22740;52.182;8.780;2022-07-23T20:50:29;2.72;;;1.08;;
36789;SDS011;22740;52.182;8.780;2022-07-23T20:56:31;4.93;;;1.20;;
36789;SDS011;22740;52.182;8.780;2022-07-23T21:02:33;2.95;;;1.10;;
36789;SDS011;22740;52.182;8.780;2022-07-23T21:08:36;2.95;;;1.20;;
36789;SDS011;22740;52.182;8.780;2022-07-23T21:14:37;3.40;;;1.05;;
36789;SDS011;22740;52.182;8.780;2022-07-23T21:20:39;2.75;;;1.08;;
36789;SDS011;22740;52.182;8.780;2022-07-23T21:27:00;2.30;;;1.30;;
36789;SDS011;22740;52.182;8.780;2022-07-23T21:33:08;4.80;;;2.03;;
36789;SDS011;22740;52.182;8.780;2022-07-23T21:39:10;9.00;;;3.05;;
36789;SDS011;22740;52.182;8.780;2022-07-23T21:45:12;5.80;;;2.45;;
36789;SDS011;22740;52.182;8.780;2022-07-23T21:51:13;6.70;;;2.60;;
36789;SDS011;22740;52.182;8.780;2022-07-23T21:57:15;5.45;;;2.58;;
36789;SDS011;22740;52.182;8.780;2022-07-23T22:03:17;3.65;;;2.10;;
36789;SDS011;22740;52.182;8.780;2022-07-23T22:09:19;4.95;;;1.95;;
36789;SDS011;22740;52.182;8.780;2022-07-23T22:15:21;4.15;;;1.88;;
36789;SDS011;22740;52.182;8.780;2022-07-23T22:21:23;2.22;;;1.20;;
36789;SDS011;22740;52.182;8.780;2022-07-23T22:27:45;3.72;;;1.70;;
36789;SDS011;22740;52.182;8.780;2022-07-23T22:33:47;3.72;;;1.45;;
36789;SDS011;22740;52.182;8.780;2022-07-23T22:39:49;3.92;;;1.70;;
36789;SDS011;22740;52.182;8.780;2022-07-23T22:45:51;4.15;;;1.65;;
36789;SDS011;22740;52.182;8.780;2022-07-23T22:51:52;4.90;;;1.50;;
36789;SDS011;22740;52.182;8.780;2022-07-23T22:57:56;3.15;;;1.45;;
36789;SDS011;22740;52.182;8.780;2022-07-23T23:03:58;2.75;;;1.38;;
36789;SDS011;22740;52.182;8.780;2022-07-23T23:10:00;2.78;;;1.58;;
36789;SDS011;22740;52.182;8.780;2022-07-23T23:16:02;4.22;;;1.70;;
36789;SDS011;22740;52.182;8.780;2022-07-23T23:22:04;3.50;;;1.50;;
36789;SDS011;22740;52.182;8.780;2022-07-23T23:28:06;3.10;;;1.67;;
36789;SDS011;22740;52.182;8.780;2022-07-23T23:34:07;4.18;;;1.45;;
36789;SDS011;22740;52.182;8.780;2022-07-23T23:40:09;4.57;;;1.55;;
36789;SDS011;22740;52.182;8.780;2022-07-23T23:46:11;4.00;;;2.03;;
36789;SDS011;22740;52.182;8.780;2022-07-23T23:52:13;3.88;;;1.58;;
36789;SDS011;22740;52.182;8.780;2022-07-23T23:58:16;2.58;;;1.50;;
